Time;durP1;ratioP1;P1;durP2;ratioP2;P2;SDS_P1;SDS_P2;PMS_P1;PMS_P2;Temp;Humidity;BMP_temperature;BMP_pressure;BME280_temperature;BME280_humidity;BME280_pressure;Samples;Min_cycle;Max_cycle;Signal;HPM_P1;HPM_P2
2023/11/24 00:00:06;;;;;;;11.32;4.25;;;;;;;-5.31;63.38;96437.28;5040849;28;20063;-70
2023/11/24 00:02:41;;;;;;;9.23;4.25;;;;;;;-5.24;63.20;96469.41;5071159;28;20057;-70
2023/11/24 00:05:07;;;;;;;9.57;4.35;;;;;;;-5.17;63.41;96481.22;5060814;28;20052;-69
2023/11/24 00:07:34;;;;;;;7.82;4.13;;;;;;;-5.47;63.13;96451.63;5058604;28;20036;-70
2023/11/24 00:10:05;;;;;;;10.05;4.43;;;;;;;-5.46;63.72;96459.25;5073658;28;20551;-70
2023/11/24 00:12:34;;;;;;;9.63;4.40;;;;;;;-5.37;63.16;96434.75;5042173;28;20483;-70
2023/11/24 00:15:05;;;;;;;8.48;3.92;;;;;;;-5.22;63.52;96436.44;5044498;28;20118;-68
2023/11/24 00:17:33;;;;;;;6.85;3.97;;;;;;;-5.13;63.31;96471.94;5044419;28;20499;-69
2023/11/24 00:20:00;;;;;;;8.55;4.20;;;;;;;-5.24;63.60;96428.84;5073949;28;20051;-69
2023/11/24 00:22:31;;;;;;;9.55;4.18;;;;;;;-5.24;63.71;96420.38;5061678;28;20036;-70
2023/11/24 00:25:01;;;;;;;9.82;4.35;;;;;;;-5.58;63.89;96340.13;5072352;28;20076;-70
2023/11/24 00:27:31;;;;;;;8.93;4.55;;;;;;;-4.72;63.77;96449.91;5056526;28;20043;-70
2023/11/24 00:30:00;;;;;;;9.27;5.03;;;;;;;-4.90;63.63;96421.19;5060435;28;20040;-72
2023/11/24 00:32:27;;;;;;;11.05;4.75;;;;;;;-4.63;63.11;96441.44;5070180;28;20414;-73
2023/11/24 00:34:59;;;;;;;9.55;4.57;;;;;;;-5.32;63.86;96331.66;5058577;28;20371;-74
2023/11/24 00:37:36;;;;;;;11.70;4.78;;;;;;;-4.72;63.32;96439.75;5045936;28;20047;-74
2023/11/24 00:40:07;;;;;;;9.48;4.72;;;;;;;-5.13;63.68;96347.69;5048317;28;20037;-72
2023/11/24 00:42:40;;;;;;;8.27;4.82;;;;;;;-5.21;63.34;96395.03;5075893;28;20123;-72
2023/11/24 00:45:18;;;;;;;9.90;5.15;;;;;;;-5.39;63.40;96357.84;5045173;28;20097;-74
2023/11/24 00:47:50;;;;;;;9.88;4.78;;;;;;;-5.21;63.94;96362.94;5079690;28;20522;-71
2023/11/24 00:50:32;;;;;;;8.82;4.65;;;;;;;-5.29;63.71;96332.50;5024716;28;20517;-71
2023/11/24 00:53:05;;;;;;;9.48;4.88;;;;;;;-5.41;63.84;96312.25;5059299;28;20055;-70
2023/11/24 00:55:35;;;;;;;10.82;5.20;;;;;;;-5.27;63.64;96341.78;5040759;28;20109;-71
2023/11/24 00:58:01;;;;;;;10.30;4.40;;;;;;;-5.51;63.79;96311.41;5043304;28;20044;-71
2023/11/24 01:00:30;;;;;;;9.75;4.80;;;;;;;-5.25;63.29;96340.94;5061662;28;20040;-71
2023/11/24 01:02:58;;;;;;;11.85;4.93;;;;;;;-5.59;63.24;96285.22;5044869;28;20426;-71
2023/11/24 01:05:28;;;;;;;9.40;4.75;;;;;;;-5.07;63.82;96369.66;5073387;28;20162;-71
2023/11/24 01:07:59;;;;;;;10.38;4.95;;;;;;;-5.05;63.51;96373.03;5060029;28;20036;-72
2023/11/24 01:10:27;;;;;;;9.20;5.00;;;;;;;-5.15;62.99;96370.50;5042357;28;20040;-68
2023/11/24 01:12:59;;;;;;;11.55;5.55;;;;;;;-5.08;64.07;96337.53;5058950;28;20135;-69
2023/11/24 01:15:54;;;;;;;12.07;5.30;;;;;;;-4.69;64.37;96356.00;5061991;28;20504;-70
2023/11/24 01:18:21;;;;;;;11.07;5.57;;;;;;;-4.82;63.43;96345.06;5067410;28;20044;-69
2023/11/24 01:20:59;;;;;;;12.35;5.28;;;;;;;-5.04;63.67;96302.00;5056484;28;20039;-70
2023/11/24 01:23:28;;;;;;;12.30;6.00;;;;;;;-4.70;63.64;96351.78;5029271;28;20094;-72
2023/11/24 01:25:57;;;;;;;12.25;5.20;;;;;;;-5.03;63.44;96310.47;5071347;28;20048;-69
2023/11/24 01:28:27;;;;;;;16.63;5.82;;;;;;;-5.17;62.67;96305.44;5054343;28;20044;-70
2023/11/24 01:31:05;;;;;;;11.45;4.97;;;;;;;-5.32;63.94;96296.16;5041045;28;20041;-70
2023/11/24 01:33:42;;;;;;;12.90;5.70;;;;;;;-5.47;64.01;96244.69;5071085;28;20040;-71
2023/11/24 01:36:08;;;;;;;11.65;5.03;;;;;;;-4.98;64.09;96306.25;5070626;28;20037;-71
2023/11/24 01:38:38;;;;;;;12.98;5.80;;;;;;;-5.05;62.60;96302.03;5053340;28;20075;-71
2023/11/24 01:41:24;;;;;;;13.43;6.28;;;;;;;-5.82;63.80;96181.41;5074029;28;20456;-70
2023/11/24 01:44:00;;;;;;;11.18;5.40;;;;;;;-5.55;63.03;96208.38;5054548;28;20623;-72
2023/11/24 01:46:31;;;;;;;13.25;5.95;;;;;;;-4.96;63.60;96299.44;5054900;28;20179;-72
2023/11/24 01:49:01;;;;;;;11.23;5.90;;;;;;;-5.37;64.13;96189.75;5041179;28;20459;-72
2023/11/24 01:51:36;;;;;;;11.13;5.93;;;;;;;-4.78;64.27;96257.13;5058552;28;20032;-73
2023/11/24 01:54:07;;;;;;;12.23;5.75;;;;;;;-4.85;63.89;96218.22;5035028;28;20055;-72
2023/11/24 01:56:48;;;;;;;11.15;5.40;;;;;;;-4.91;63.68;96201.34;5074042;28;20038;-74
2023/11/24 01:59:22;;;;;;;12.27;6.40;;;;;;;-4.93;63.00;96246.16;5042474;28;20044;-72
2023/11/24 02:01:51;;;;;;;12.82;5.90;;;;;;;-5.21;63.34;96241.22;5053719;28;20051;-72
2023/11/24 02:04:34;;;;;;;10.90;5.68;;;;;;;-5.03;63.53;96247.91;5054833;28;20047;-73
2023/11/24 02:07:04;;;;;;;11.32;5.60;;;;;;;-5.27;64.15;96198.16;5073781;28;20123;-72
2023/11/24 02:09:39;;;;;;;14.13;6.28;;;;;;;-4.99;63.38;96247.03;5072143;28;20158;-73
2023/11/24 02:12:16;;;;;;;10.77;5.07;;;;;;;-5.33;64.18;96221.84;5071385;28;20081;-72
2023/11/24 02:14:53;;;;;;;11.82;5.30;;;;;;;-5.46;64.35;96166.94;5055748;28;20083;-73
2023/11/24 02:17:20;;;;;;;9.43;5.50;;;;;;;-4.85;64.88;96229.22;5068991;28;20064;-74
2023/11/24 02:19:51;;;;;;;12.77;5.53;;;;;;;-5.77;62.90;96098.66;5058618;28;20573;-73
2023/11/24 02:22:20;;;;;;;10.10;5.28;;;;;;;-5.70;62.87;96115.50;5041613;28;20028;-72
2023/11/24 02:24:49;;;;;;;12.23;5.53;;;;;;;-5.91;63.17;96108.84;5057697;28;20037;-73
2023/11/24 02:27:29;;;;;;;9.23;5.00;;;;;;;-5.52;64.13;96154.31;5040227;28;20066;-73
2023/11/24 02:29:55;;;;;;;11.88;5.88;;;;;;;-5.36;64.59;96150.00;5040251;28;20059;-72
2023/11/24 02:32:23;;;;;;;14.43;5.32;;;;;;;-5.20;63.42;96197.28;5040593;28;20483;-71
2023/11/24 02:34:50;;;;;;;10.45;5.40;;;;;;;-5.80;63.84;96117.22;5057906;28;20040;-70
2023/11/24 02:37:17;;;;;;;10.38;5.78;;;;;;;-5.41;63.56;96188.06;5036869;28;20464;-71
2023/11/24 02:39:53;;;;;;;10.77;5.53;;;;;;;-5.43;63.74;96194.81;5053799;28;20032;-72
2023/11/24 02:42:20;;;;;;;11.43;5.60;;;;;;;-5.73;64.17;96105.38;5038635;28;20037;-71
2023/11/24 02:44:51;;;;;;;11.60;5.47;;;;;;;-6.04;63.67;96080.22;5037557;28;20044;-71
2023/11/24 02:47:17;;;;;;;10.93;6.05;;;;;;;-5.82;63.65;96130.75;5039780;28;20071;-73
2023/11/24 02:49:43;;;;;;;9.95;5.78;;;;;;;-5.56;64.43;96134.91;5052510;28;20516;-72
2023/11/24 02:52:10;;;;;;;12.82;6.15;;;;;;;-5.05;64.76;96185.38;5070311;28;20136;-73
2023/11/24 02:54:41;;;;;;;12.68;6.00;;;;;;;-5.17;64.28;96179.50;5057045;28;20502;-72
2023/11/24 02:57:07;;;;;;;11.32;6.07;;;;;;;-5.86;62.82;96086.88;5045357;28;20605;-75
2023/11/24 02:59:34;;;;;;;9.43;5.40;;;;;;;-6.12;64.39;96066.72;5024024;28;20075;-74
2023/11/24 03:02:03;;;;;;;12.95;5.82;;;;;;;-5.43;63.83;96155.97;5038750;28;20414;-72
2023/11/24 03:04:32;;;;;;;10.48;5.32;;;;;;;-5.35;64.11;96151.69;5055840;28;20036;-75
2023/11/24 03:07:04;;;;;;;13.68;5.80;;;;;;;-6.16;64.42;96005.16;5072195;28;20055;-73
2023/11/24 03:09:31;;;;;;;12.25;5.35;;;;;;;-5.46;63.63;96118.78;5040994;28;20043;-74
2023/11/24 03:11:58;;;;;;;10.38;4.85;;;;;;;-5.64;64.50;96095.22;5055514;28;20053;-71
2023/11/24 03:14:28;;;;;;;14.55;6.15;;;;;;;-5.84;63.95;96085.16;5071022;28;20066;-70
2023/11/24 03:16:57;;;;;;;12.95;6.35;;;;;;;-5.65;64.63;96103.69;5050967;28;20063;-73
2023/11/24 03:19:27;;;;;;;10.27;5.53;;;;;;;-5.84;63.91;96038.75;5057878;28;20040;-72
2023/11/24 03:21:56;;;;;;;13.93;5.63;;;;;;;-5.69;64.79;96043.72;5073340;28;20048;-74
2023/11/24 03:24:31;;;;;;;11.90;5.43;;;;;;;-5.05;64.52;96139.72;5053692;28;20055;-74
2023/11/24 03:27:04;;;;;;;9.00;5.07;;;;;;;-5.02;64.21;96109.28;5038911;28;20072;-72
2023/11/24 03:29:36;;;;;;;12.15;4.88;;;;;;;-5.20;63.77;96128.84;5054852;28;20120;-72
2023/11/24 03:32:07;;;;;;;12.90;5.75;;;;;;;-5.90;62.92;96042.16;5044834;28;21128;-71
2023/11/24 03:34:34;;;;;;;11.02;5.97;;;;;;;-5.52;64.35;96090.97;5072985;28;20036;-72
2023/11/24 03:37:00;;;;;;;12.43;5.80;;;;;;;-6.17;63.54;95989.94;5043902;28;20043;-73
2023/11/24 03:39:27;;;;;;;11.80;5.63;;;;;;;-5.92;63.83;96056.50;5071966;28;20033;-71
2023/11/24 03:41:57;;;;;;;10.27;5.47;;;;;;;-6.01;63.50;96064.16;5059639;28;20029;-72
2023/11/24 03:44:29;;;;;;;14.40;6.20;;;;;;;-5.63;64.81;96104.50;5043101;28;20486;-72
2023/11/24 03:47:05;;;;;;;14.45;6.22;;;;;;;-5.45;65.08;96102.75;5072897;28;20036;-71
2023/11/24 03:49:32;;;;;;;11.85;5.85;;;;;;;-5.70;64.63;96056.41;5039910;28;20070;-73
2023/11/24 03:52:01;;;;;;;12.38;6.18;;;;;;;-5.06;65.51;96123.66;5041322;28;20082;-74
2023/11/24 03:54:27;;;;;;;12.38;6.38;;;;;;;-5.55;64.89;96010.72;5042928;28;20040;-73
2023/11/24 03:56:54;;;;;;;14.98;6.72;;;;;;;-5.25;65.62;96044.34;5072404;28;20125;-72
2023/11/24 03:59:20;;;;;;;15.20;7.35;;;;;;;-4.85;63.91;96096.47;5053564;28;20040;-71
2023/11/24 04:01:58;;;;;;;12.80;6.55;;;;;;;-4.70;64.35;96110.75;5039525;28;20512;-73
2023/11/24 04:04:30;;;;;;;12.80;6.18;;;;;;;-5.21;65.25;96053.63;5037261;28;20120;-72
2023/11/24 04:07:03;;;;;;;15.10;7.10;;;;;;;-5.16;65.03;96036.66;5018904;28;20114;-72
2023/11/24 04:09:29;;;;;;;11.95;5.85;;;;;;;-5.22;64.40;96033.34;5020691;28;20037;-73
2023/11/24 04:11:56;;;;;;;12.20;6.22;;;;;;;-4.96;64.63;96070.34;5050188;28;20137;-73
2023/11/24 04:14:22;;;;;;;14.00;6.47;;;;;;;-5.73;63.96;95995.63;5018445;28;20484;-73
2023/11/24 04:16:48;;;;;;;13.18;6.68;;;;;;;-6.10;64.46;95946.91;5033627;28;20049;-73
2023/11/24 04:19:28;;;;;;;18.40;7.63;;;;;;;-5.67;64.46;96014.19;5031234;28;20060;-73
2023/11/24 04:21:57;;;;;;;15.52;7.93;;;;;;;-5.32;65.17;96080.72;5034557;28;20044;-72
2023/11/24 04:24:27;;;;;;;17.40;8.13;;;;;;;-6.00;64.59;95965.44;5019935;28;20045;-72
2023/11/24 04:27:16;;;;;;;16.20;8.38;;;;;;;-5.59;63.92;96011.59;5020920;28;20119;-73
2023/11/24 04:29:43;;;;;;;17.80;8.52;;;;;;;-5.16;64.53;96082.31;5020338;28;20041;-72
2023/11/24 04:32:12;;;;;;;14.23;7.10;;;;;;;-5.57;65.57;95998.94;5033584;28;20064;-73
2023/11/24 04:34:38;;;;;;;17.45;8.85;;;;;;;-5.65;64.67;95976.19;5021066;28;20072;-69
2023/11/24 04:37:19;;;;;;;18.92;9.05;;;;;;;-5.07;64.70;96085.66;5017519;28;20069;-69
2023/11/24 04:39:46;;;;;;;16.15;7.32;;;;;;;-5.21;65.56;96037.56;5017836;28;20933;-69
2023/11/24 04:42:12;;;;;;;18.10;7.50;;;;;;;-5.01;65.40;96066.16;5030125;28;20440;-70
2023/11/24 04:44:38;;;;;;;18.65;7.65;;;;;;;-5.29;65.47;96050.28;5036571;28;20042;-71
2023/11/24 04:47:04;;;;;;;16.50;7.85;;;;;;;-5.37;65.74;96031.72;5014916;28;20465;-70
2023/11/24 04:49:36;;;;;;;18.42;7.88;;;;;;;-5.23;65.75;96021.50;5031870;28;20079;-72
2023/11/24 04:52:05;;;;;;;16.52;7.68;;;;;;;-5.28;64.62;96041.84;5042525;28;20037;-69
2023/11/24 04:54:31;;;;;;;18.20;8.30;;;;;;;-5.28;64.78;96046.91;5016333;28;20037;-70
2023/11/24 04:56:57;;;;;;;15.75;7.90;;;;;;;-5.23;65.08;96050.25;5032957;28;20415;-68
2023/11/24 04:59:26;;;;;;;19.58;8.82;;;;;;;-5.37;64.55;96029.19;5030250;28;20112;-68
2023/11/24 05:01:55;;;;;;;19.35;8.55;;;;;;;-5.43;65.57;96014.06;5029154;28;20048;-71
2023/11/24 05:04:21;;;;;;;20.98;8.88;;;;;;;-5.63;65.01;96004.88;5049949;28;20047;-70
2023/11/24 05:06:47;;;;;;;20.42;9.63;;;;;;;-5.53;64.43;96026.78;5036470;28;20071;-70
2023/11/24 05:09:16;;;;;;;24.13;10.30;;;;;;;-5.53;65.48;96024.22;5050439;28;20495;-69
2023/11/24 05:11:42;;;;;;;26.38;11.02;;;;;;;-5.40;65.59;96037.69;5054154;28;20048;-68
2023/11/24 05:14:09;;;;;;;25.30;10.27;;;;;;;-5.48;65.20;96003.94;5035995;28;20060;-70
2023/11/24 05:16:45;;;;;;;23.35;10.40;;;;;;;-5.18;66.29;96048.50;5053791;28;20041;-68
2023/11/24 05:19:15;;;;;;;24.08;10.93;;;;;;;-4.99;66.28;96040.78;5035889;28;20166;-69
2023/11/24 05:21:43;;;;;;;20.60;9.27;;;;;;;-5.11;65.59;96026.50;5038826;28;20093;-68
2023/11/24 05:24:16;;;;;;;23.48;10.57;;;;;;;-5.30;65.96;96003.84;5050618;28;20098;-68
2023/11/24 05:26:44;;;;;;;25.48;10.75;;;;;;;-5.04;65.91;96035.72;5019995;28;20045;-69
2023/11/24 05:29:13;;;;;;;18.27;8.98;;;;;;;-5.56;65.68;95948.25;5036993;28;20052;-69
2023/11/24 05:31:43;;;;;;;23.45;10.40;;;;;;;-5.25;66.21;95980.13;5050737;28;20529;-70
2023/11/24 05:34:09;;;;;;;24.48;11.32;;;;;;;-5.52;66.40;95944.00;5037452;28;20140;-71
2023/11/24 05:36:35;;;;;;;21.83;10.73;;;;;;;-5.08;65.92;96005.34;5035885;28;20065;-69
2023/11/24 05:39:02;;;;;;;28.65;11.15;;;;;;;-5.53;66.73;95922.88;5051799;28;20088;-70
2023/11/24 05:41:28;;;;;;;23.52;11.27;;;;;;;-4.82;66.51;95999.22;5068264;28;20136;-70
2023/11/24 05:43:56;;;;;;;22.15;11.35;;;;;;;-5.43;65.44;95905.09;5055572;28;20481;-70
2023/11/24 05:46:28;;;;;;;25.65;12.07;;;;;;;-5.36;66.68;95906.69;5051028;28;20137;-70
2023/11/24 05:49:00;;;;;;;21.27;10.15;;;;;;;-5.11;65.71;95974.94;5051746;28;20037;-70
2023/11/24 05:51:26;;;;;;;21.52;9.70;;;;;;;-4.99;65.84;96013.72;5015322;28;20037;-70
2023/11/24 05:53:55;;;;;;;24.65;11.25;;;;;;;-5.15;65.34;95999.50;5065005;28;20037;-70
2023/11/24 05:56:21;;;;;;;22.50;10.45;;;;;;;-5.59;65.22;95955.84;5035117;28;20037;-70
2023/11/24 05:58:48;;;;;;;24.08;11.30;;;;;;;-5.68;65.90;95918.75;5042847;28;20051;-71
2023/11/24 06:01:14;;;;;;;22.92;10.27;;;;;;;-5.55;65.94;95957.53;5059270;28;20544;-70
2023/11/24 06:03:41;;;;;;;22.35;10.15;;;;;;;-5.33;65.81;95977.66;5041808;28;20500;-69
2023/11/24 06:06:12;;;;;;;21.77;10.52;;;;;;;-5.25;66.51;95975.91;5023608;28;20045;-71
2023/11/24 06:08:40;;;;;;;22.00;10.70;;;;;;;-5.00;66.26;95996.00;5017007;28;20076;-72
2023/11/24 06:11:07;;;;;;;22.65;10.52;;;;;;;-5.31;65.88;95960.72;5041249;28;20183;-70
2023/11/24 06:13:42;;;;;;;24.65;10.35;;;;;;;-5.77;65.74;95894.34;5016355;28;20046;-69
2023/11/24 06:16:09;;;;;;;24.23;10.80;;;;;;;-5.30;66.16;95963.28;5046293;28;20052;-72
2023/11/24 06:18:36;;;;;;;24.70;10.88;;;;;;;-5.48;65.86;95938.03;5042867;28;20041;-72
2023/11/24 06:21:04;;;;;;;25.10;11.27;;;;;;;-5.25;66.71;95963.22;5030829;28;20041;-72
2023/11/24 06:23:31;;;;;;;25.30;10.75;;;;;;;-5.17;66.08;95951.31;5017374;28;20088;-70
2023/11/24 06:25:56;;;;;;;24.30;10.73;;;;;;;-5.25;66.42;95950.56;5032855;28;20411;-71
2023/11/24 06:28:25;;;;;;;24.52;10.15;;;;;;;-5.24;65.97;95937.03;5000297;28;20419;-70
2023/11/24 06:30:53;;;;;;;26.17;11.98;;;;;;;-4.99;67.24;95960.47;5031351;28;20067;-75
2023/11/24 06:33:24;;;;;;;26.05;11.55;;;;;;;-4.78;67.44;95955.22;5030365;28;20056;-71
2023/11/24 06:35:50;;;;;;;25.98;11.13;;;;;;;-4.62;67.39;95958.44;5032498;28;20149;-71
2023/11/24 06:38:17;;;;;;;21.95;10.25;;;;;;;-4.74;66.27;95952.63;5060735;28;20068;-72
2023/11/24 06:40:43;;;;;;;24.20;11.10;;;;;;;-5.06;66.53;95907.28;5017291;28;20499;-73
2023/11/24 06:43:17;;;;;;;25.85;11.43;;;;;;;-4.75;67.43;95955.19;5035844;28;20037;-73
2023/11/24 06:45:47;;;;;;;25.33;11.52;;;;;;;-4.95;67.23;95861.53;5031752;28;20102;-67
2023/11/24 06:48:16;;;;;;;26.58;11.32;;;;;;;-4.21;65.61;95961.38;5002675;28;20034;-71
2023/11/24 06:50:46;;;;;;;25.77;11.25;;;;;;;-4.43;65.86;95916.78;5036318;28;20056;-67
2023/11/24 06:53:14;;;;;;;29.23;12.45;;;;;;;-4.25;66.74;95945.34;5038231;28;20160;-69
2023/11/24 06:55:41;;;;;;;24.70;10.57;;;;;;;-4.39;65.89;95948.03;5037857;28;20105;-67
2023/11/24 06:58:07;;;;;;;26.52;12.32;;;;;;;-4.56;65.84;95935.53;5036106;28;20155;-69
2023/11/24 07:00:37;;;;;;;30.85;12.52;;;;;;;-4.77;66.03;95878.25;5028290;28;20065;-70
2023/11/24 07:03:03;;;;;;;28.83;11.98;;;;;;;-5.23;66.57;95811.97;5058884;28;20144;-66
2023/11/24 07:05:31;;;;;;;26.00;11.18;;;;;;;-4.40;66.12;95939.56;5047903;28;20037;-67
2023/11/24 07:08:00;;;;;;;34.38;13.20;;;;;;;-4.22;66.10;95954.63;5048759;28;20048;-66
2023/11/24 07:10:28;;;;;;;33.35;13.35;;;;;;;-4.08;66.61;95952.75;5056758;28;20791;-71
2023/11/24 07:13:24;;;;;;;31.02;13.23;;;;;;;-4.18;66.87;95924.06;5040590;28;20038;-75
2023/11/24 07:15:52;;;;;;;31.02;13.18;;;;;;;-4.50;66.23;95899.94;5053737;28;20052;-75
2023/11/24 07:18:26;;;;;;;31.92;13.32;;;;;;;-3.94;66.61;95958.50;5028215;28;20045;-67
2023/11/24 07:20:54;;;;;;;28.42;12.93;;;;;;;-4.16;66.13;95903.75;5041806;28;20051;-67
2023/11/24 07:23:20;;;;;;;29.77;12.93;;;;;;;-4.16;65.83;95914.75;5025383;28;20041;-66
2023/11/24 07:25:48;;;;;;;31.50;14.23;;;;;;;-4.27;65.01;95922.50;5003191;28;20048;-68
2023/11/24 07:28:14;;;;;;;30.45;13.55;;;;;;;-4.20;66.61;95943.59;5043036;28;20041;-69
2023/11/24 07:30:42;;;;;;;36.83;14.65;;;;;;;-4.77;66.49;95825.00;5042123;28;20069;-71
2023/11/24 07:33:09;;;;;;;38.97;15.80;;;;;;;-4.30;65.51;95927.59;5026472;28;20049;-66
2023/11/24 07:35:34;;;;;;;35.75;14.40;;;;;;;-4.47;66.20;95899.06;5026457;28;20045;-67
2023/11/24 07:38:00;;;;;;;44.67;16.27;;;;;;;-4.40;66.91;95906.56;5026917;28;20418;-66
2023/11/24 07:40:26;;;;;;;42.67;15.82;;;;;;;-4.04;66.70;95941.69;5027064;28;20048;-66
2023/11/24 07:42:52;;;;;;;31.05;14.30;;;;;;;-4.49;66.10;95883.84;5024854;28;20458;-67
2023/11/24 07:45:18;;;;;;;35.55;14.38;;;;;;;-4.10;66.55;95949.41;5024094;28;20483;-67
2023/11/24 07:47:44;;;;;;;36.30;13.63;;;;;;;-4.28;66.40;95925.06;5016611;28;20552;-69
2023/11/24 07:50:10;;;;;;;32.80;12.10;;;;;;;-4.12;66.69;95935.88;5024935;28;20037;-69
2023/11/24 07:52:36;;;;;;;32.42;13.20;;;;;;;-4.45;66.49;95893.13;5023658;28;20356;-71
2023/11/24 07:55:02;;;;;;;31.10;12.93;;;;;;;-4.08;65.74;95942.56;5024861;28;20741;-71
2023/11/24 07:57:29;;;;;;;38.10;15.07;;;;;;;-4.02;67.23;95913.75;5026039;28;20072;-67
2023/11/24 07:59:55;;;;;;;24.13;11.02;;;;;;;-3.75;66.72;95932.84;5008815;28;20500;-65
2023/11/24 08:02:21;;;;;;;27.60;11.85;;;;;;;-3.73;66.38;95913.34;5023412;28;20059;-67
2023/11/24 08:04:47;;;;;;;29.98;14.57;;;;;;;-3.69;66.06;95927.69;5044997;28;20139;-66
2023/11/24 08:07:12;;;;;;;33.67;14.45;;;;;;;-3.68;65.97;95921.75;5051916;28;20124;-67
2023/11/24 08:09:38;;;;;;;35.25;13.20;;;;;;;-3.72;65.87;95893.84;5039640;28;20147;-68
2023/11/24 08:12:05;;;;;;;41.45;16.90;;;;;;;-3.51;65.22;95898.59;5052508;28;20075;-68
2023/11/24 08:14:31;;;;;;;43.78;16.98;;;;;;;-3.49;66.55;95868.91;5040364;28;20149;-67
2023/11/24 08:16:56;;;;;;;35.42;15.80;;;;;;;-2.92;66.24;95912.03;5027031;28;20045;-67
2023/11/24 08:19:25;;;;;;;41.78;16.90;;;;;;;-3.08;65.76;95879.25;5038789;28;20053;-67
2023/11/24 08:21:51;;;;;;;28.95;13.13;;;;;;;-2.93;65.08;95915.47;5038622;28;20040;-67
2023/11/24 08:24:17;;;;;;;29.10;13.77;;;;;;;-3.08;66.46;95878.41;5043922;28;20045;-68
2023/11/24 08:26:44;;;;;;;29.88;13.43;;;;;;;-2.69;65.75;95892.97;5028597;28;20041;-74
2023/11/24 08:29:10;;;;;;;24.73;12.32;;;;;;;-3.27;65.82;95804.97;5044678;28;20045;-70
2023/11/24 08:31:36;;;;;;;23.88;11.75;;;;;;;-2.73;64.95;95857.41;5046846;28;20042;-71
2023/11/24 08:34:02;;;;;;;20.38;10.88;;;;;;;-2.58;64.51;95914.00;5046821;28;20092;-69
2023/11/24 08:36:28;;;;;;;22.75;11.48;;;;;;;-2.65;65.63;95884.41;5045867;28;20068;-72
2023/11/24 08:38:53;;;;;;;26.65;10.77;;;;;;;-2.68;65.23;95887.03;5045705;28;20153;-72
2023/11/24 08:41:19;;;;;;;27.38;11.70;;;;;;;-2.63;66.19;95852.97;5043574;28;20037;-70
2023/11/24 08:43:45;;;;;;;32.33;17.75;;;;;;;-2.77;64.95;95797.28;5043794;28;20455;-70
2023/11/24 08:46:11;;;;;;;31.08;15.88;;;;;;;-2.44;66.00;95791.50;5041471;28;20049;-71
2023/11/24 08:48:39;;;;;;;24.95;13.60;;;;;;;-1.85;65.78;95872.56;5045366;28;21018;-69
2023/11/24 08:51:10;;;;;;;26.83;12.82;;;;;;;-1.60;65.43;95861.81;5043812;28;20049;-71
2023/11/24 08:53:36;;;;;;;26.35;11.95;;;;;;;-1.51;65.56;95865.84;5058873;28;20095;-69
2023/11/24 08:56:04;;;;;;;26.50;11.88;;;;;;;-1.19;64.08;95873.59;5045912;28;20037;-70
2023/11/24 08:58:32;;;;;;;27.60;11.98;;;;;;;-1.30;63.06;95874.72;5030012;28;20041;-70
2023/11/24 09:00:58;;;;;;;22.30;11.20;;;;;;;-1.30;64.17;95869.63;5045971;28;20041;-68
2023/11/24 09:03:24;;;;;;;23.30;11.63;;;;;;;-1.25;62.37;95870.34;5064899;28;20410;-69
2023/11/24 09:05:57;;;;;;;21.65;10.85;;;;;;;-1.02;64.93;95861.28;5046742;28;20043;-68
2023/11/24 09:08:24;;;;;;;25.40;12.07;;;;;;;-0.70;64.42;95867.22;5064928;28;20564;-70
2023/11/24 09:10:50;;;;;;;21.80;11.88;;;;;;;-0.40;64.24;95836.63;5046172;28;20043;-68
2023/11/24 09:13:16;;;;;;;27.20;12.82;;;;;;;0.08;64.25;95852.28;5067603;28;20040;-70
2023/11/24 09:15:42;;;;;;;33.65;14.25;;;;;;;-0.13;63.95;95857.16;5062936;28;20045;-71
2023/11/24 09:18:09;;;;;;;25.67;12.82;;;;;;;-0.48;62.70;95859.84;5067547;28;20414;-71
2023/11/24 09:20:36;;;;;;;30.27;14.00;;;;;;;-0.82;61.64;95875.22;5062918;28;20037;-71
2023/11/24 09:23:04;;;;;;;30.42;13.27;;;;;;;-1.19;62.52;95871.91;5046312;28;20075;-69
2023/11/24 09:25:32;;;;;;;25.80;13.02;;;;;;;-1.60;62.67;95795.53;5063997;28;20037;-70
2023/11/24 09:27:59;;;;;;;25.20;12.18;;;;;;;-1.03;63.66;95862.16;5062536;28;20048;-66
2023/11/24 09:30:24;;;;;;;26.65;12.60;;;;;;;-0.89;63.45;95886.47;5048568;28;20414;-70
2023/11/24 09:32:54;;;;;;;20.42;11.05;;;;;;;-1.46;61.40;95843.63;5046743;28;20747;-67
2023/11/24 09:35:22;;;;;;;23.92;11.55;;;;;;;-1.50;62.78;95887.94;5065233;28;20800;-70
2023/11/24 09:37:48;;;;;;;25.98;11.57;;;;;;;-1.75;61.82;95887.66;5062789;28;20032;-70
2023/11/24 09:40:19;;;;;;;28.88;12.95;;;;;;;-2.28;61.67;95865.84;5046188;28;20449;-70
2023/11/24 09:42:45;;;;;;;25.95;12.10;;;;;;;-2.45;62.91;95841.59;5044360;28;20040;-70
2023/11/24 09:45:15;;;;;;;24.95;12.65;;;;;;;-2.13;62.64;95890.19;5058342;28;20044;-67
2023/11/24 09:47:49;;;;;;;26.42;12.88;;;;;;;-2.30;62.48;95888.81;5045356;28;20040;-69
2023/11/24 09:50:25;;;;;;;27.92;13.43;;;;;;;-2.07;62.87;95897.69;5045648;28;20037;-69
2023/11/24 09:52:54;;;;;;;31.85;14.85;;;;;;;-1.88;64.13;95882.00;5057923;28;20132;-67
2023/11/24 09:55:21;;;;;;;25.02;11.90;;;;;;;-1.99;62.86;95907.72;5058206;28;20044;-69
2023/11/24 09:57:49;;;;;;;27.02;11.35;;;;;;;-2.46;61.99;95890.00;5059272;28;20040;-68
2023/11/24 10:00:17;;;;;;;23.73;11.85;;;;;;;-2.26;64.12;95902.31;5028865;28;20079;-67
2023/11/24 10:02:51;;;;;;;25.80;13.07;;;;;;;-1.94;63.86;95902.53;5058329;28;20073;-68
2023/11/24 10:05:21;;;;;;;24.92;11.93;;;;;;;-1.75;64.16;95883.41;5057976;28;20041;-70
2023/11/24 10:07:50;;;;;;;23.67;11.05;;;;;;;-1.85;63.44;95908.25;5056357;28;20044;-68
2023/11/24 10:10:25;;;;;;;21.63;10.75;;;;;;;-2.14;62.86;95891.91;5040313;28;20150;-68
2023/11/24 10:13:01;;;;;;;27.48;11.20;;;;;;;-2.23;63.72;95881.88;5059652;28;20051;-68
2023/11/24 10:15:28;;;;;;;27.83;12.27;;;;;;;-2.04;63.98;95904.44;5038649;28;20509;-68
2023/11/24 10:17:54;;;;;;;24.88;12.15;;;;;;;-2.14;64.05;95853.69;5037382;28;20099;-68
2023/11/24 10:20:22;;;;;;;25.65;12.48;;;;;;;-2.19;63.15;95859.72;5024944;28;20174;-69
2023/11/24 10:22:52;;;;;;;23.88;11.25;;;;;;;-1.95;63.81;95886.41;5039725;28;20052;-67
2023/11/24 10:25:29;;;;;;;22.27;13.55;;;;;;;-2.05;63.84;95898.50;5044865;28;20041;-65
2023/11/24 10:27:59;;;;;;;28.85;17.40;;;;;;;-2.48;64.03;95800.91;5059513;28;20182;-67
2023/11/24 10:30:25;;;;;;;28.98;14.90;;;;;;;-2.19;64.59;95796.91;5044830;28;20092;-69
2023/11/24 10:32:51;;;;;;;23.17;12.95;;;;;;;-1.56;64.05;95900.84;5041350;28;20110;-67
2023/11/24 10:35:17;;;;;;;38.53;14.18;;;;;;;-1.76;63.99;95888.53;5062164;28;20087;-65
2023/11/24 10:37:44;;;;;;;19.73;11.02;;;;;;;-1.65;64.20;95909.53;5062846;28;20050;-66
2023/11/24 10:40:15;;;;;;;24.50;11.60;;;;;;;-1.54;63.83;95883.78;5063146;28;20049;-66
2023/11/24 10:42:47;;;;;;;21.50;10.75;;;;;;;-1.24;64.65;95907.75;5030277;28;20066;-65
2023/11/24 10:45:17;;;;;;;;;;;;;;;-1.29;63.32;95907.00;5061473;28;20382;-65
2023/11/24 10:48:10;;;;;;;20.38;9.80;;;;;;;-1.44;64.07;95908.19;5041360;28;19916;-65
2023/11/24 10:50:41;;;;;;;20.27;10.43;;;;;;;-1.33;63.88;95909.69;5045751;28;20498;-64
2023/11/24 10:53:19;;;;;;;21.10;10.75;;;;;;;-1.20;65.16;95921.25;5031006;28;20040;-65
2023/11/24 10:55:46;;;;;;;20.70;10.30;;;;;;;-1.40;62.42;95891.09;5030534;28;20043;-65
2023/11/24 10:58:13;;;;;;;18.50;10.25;;;;;;;-1.43;63.85;95904.78;5042159;28;20040;-65
2023/11/24 11:00:40;;;;;;;26.73;12.73;;;;;;;-1.37;64.15;95903.78;5062572;28;20045;-65
2023/11/24 11:03:06;;;;;;;30.50;13.48;;;;;;;-1.18;63.49;95908.44;5029558;28;20060;-66
2023/11/24 11:05:44;;;;;;;27.13;10.95;;;;;;;-1.04;64.11;95915.75;5047982;28;20052;-66
2023/11/24 11:08:28;;;;;;;22.65;10.73;;;;;;;-1.45;63.75;95886.13;5029583;28;20037;-65
2023/11/24 11:11:12;;;;;;;21.00;10.88;;;;;;;-1.06;64.70;95914.09;5062645;28;20487;-67
2023/11/24 11:13:41;;;;;;;20.02;10.23;;;;;;;-0.82;64.23;95914.34;5040198;28;20071;-66
2023/11/24 11:16:10;;;;;;;21.02;10.63;;;;;;;-0.78;63.81;95918.50;5030680;28;20040;-65
2023/11/24 11:18:36;;;;;;;18.23;9.13;;;;;;;-0.77;64.05;95932.94;5065061;28;20037;-65
2023/11/24 11:21:34;;;;;;;20.73;10.57;;;;;;;-1.08;63.55;95877.56;5060920;28;20511;-65
2023/11/24 11:24:10;;;;;;;19.23;8.70;;;;;;;-0.73;64.03;95928.59;5042490;28;20390;-65
2023/11/24 11:27:03;;;;;;;18.23;9.65;;;;;;;-0.71;64.01;95944.72;5042850;28;20076;-67
2023/11/24 11:29:31;;;;;;;18.27;9.45;;;;;;;-1.10;63.93;95881.84;5040058;28;20052;-66
2023/11/24 11:31:57;;;;;;;20.25;9.73;;;;;;;-1.03;64.03;95910.63;5062501;28;20086;-65